sensor_id;sensor_type;location;lat;lon;timestamp;P1;durP1;ratioP1;P2;durP2;ratioP2
78752;SDS011;68072;51.688;7.842;2023-10-31T00:01:14;5.27;;;4.30;;
78752;SDS011;68072;51.688;7.842;2023-10-31T00:03:39;5.80;;;4.40;;
78752;SDS011;68072;51.688;7.842;2023-10-31T00:06:05;7.47;;;4.68;;
78752;SDS011;68072;51.688;7.842;2023-10-31T00:08:31;9.15;;;5.07;;
78752;SDS011;68072;51.688;7.842;2023-10-31T00:10:56;6.43;;;4.70;;
78752;SDS011;68072;51.688;7.842;2023-10-31T00:13:21;5.75;;;4.20;;
78752;SDS011;68072;51.688;7.842;2023-10-31T00:15:46;7.27;;;4.60;;
78752;SDS011;68072;51.688;7.842;2023-10-31T00:18:12;7.80;;;4.63;;
78752;SDS011;68072;51.688;7.842;2023-10-31T00:20:37;5.10;;;4.27;;
78752;SDS011;68072;51.688;7.842;2023-10-31T00:23:02;7.87;;;4.40;;
78752;SDS011;68072;51.688;7.842;2023-10-31T00:25:27;7.90;;;4.27;;
78752;SDS011;68072;51.688;7.842;2023-10-31T00:27:53;3.73;;;3.13;;
78752;SDS011;68072;51.688;7.842;2023-10-31T00:30:18;4.87;;;3.03;;
78752;SDS011;68072;51.688;7.842;2023-10-31T00:32:43;3.90;;;2.70;;
78752;SDS011;68072;51.688;7.842;2023-10-31T00:35:08;2.37;;;2.17;;
78752;SDS011;68072;51.688;7.842;2023-10-31T00:37:34;1.80;;;1.70;;
78752;SDS011;68072;51.688;7.842;2023-10-31T00:39:59;2.50;;;2.30;;
78752;SDS011;68072;51.688;7.842;2023-10-31T00:42:24;2.20;;;2.00;;
78752;SDS011;68072;51.688;7.842;2023-10-31T00:44:49;2.40;;;2.10;;
78752;SDS011;68072;51.688;7.842;2023-10-31T00:47:15;3.50;;;2.27;;
78752;SDS011;68072;51.688;7.842;2023-10-31T00:49:40;2.50;;;2.30;;
78752;SDS011;68072;51.688;7.842;2023-10-31T00:52:06;2.70;;;2.47;;
78752;SDS011;68072;51.688;7.842;2023-10-31T00:54:31;3.13;;;2.83;;
78752;SDS011;68072;51.688;7.842;2023-10-31T00:56:56;3.30;;;3.00;;
78752;SDS011;68072;51.688;7.842;2023-10-31T00:59:21;3.43;;;3.13;;
78752;SDS011;68072;51.688;7.842;2023-10-31T01:01:47;2.70;;;2.50;;
78752;SDS011;68072;51.688;7.842;2023-10-31T01:04:12;9.27;;;3.80;;
78752;SDS011;68072;51.688;7.842;2023-10-31T01:06:41;3.77;;;3.40;;
78752;SDS011;68072;51.688;7.842;2023-10-31T01:09:06;4.22;;;3.58;;
78752;SDS011;68072;51.688;7.842;2023-10-31T01:11:31;5.33;;;3.90;;
78752;SDS011;68072;51.688;7.842;2023-10-31T01:13:56;4.17;;;2.93;;
78752;SDS011;68072;51.688;7.842;2023-10-31T01:16:22;3.93;;;3.23;;
78752;SDS011;68072;51.688;7.842;2023-10-31T01:18:47;2.53;;;2.33;;
78752;SDS011;68072;51.688;7.842;2023-10-31T01:21:12;2.50;;;2.27;;
78752;SDS011;68072;51.688;7.842;2023-10-31T01:23:38;2.50;;;2.30;;
78752;SDS011;68072;51.688;7.842;2023-10-31T01:26:03;1.87;;;1.77;;
78752;SDS011;68072;51.688;7.842;2023-10-31T01:28:28;2.07;;;1.97;;
78752;SDS011;68072;51.688;7.842;2023-10-31T01:30:54;2.33;;;2.20;;
78752;SDS011;68072;51.688;7.842;2023-10-31T01:33:19;1.83;;;1.73;;
78752;SDS011;68072;51.688;7.842;2023-10-31T01:35:44;2.53;;;2.33;;
78752;SDS011;68072;51.688;7.842;2023-10-31T01:38:09;2.43;;;2.23;;
78752;SDS011;68072;51.688;7.842;2023-10-31T01:40:35;1.95;;;1.75;;
78752;SDS011;68072;51.688;7.842;2023-10-31T01:43:00;2.37;;;2.20;;
78752;SDS011;68072;51.688;7.842;2023-10-31T01:45:26;2.00;;;1.83;;
78752;SDS011;68072;51.688;7.842;2023-10-31T01:47:52;3.77;;;2.93;;
78752;SDS011;68072;51.688;7.842;2023-10-31T01:50:18;2.70;;;2.50;;
78752;SDS011;68072;51.688;7.842;2023-10-31T01:52:43;3.55;;;2.92;;
78752;SDS011;68072;51.688;7.842;2023-10-31T01:55:09;2.03;;;1.85;;
78752;SDS011;68072;51.688;7.842;2023-10-31T01:57:35;2.22;;;2.05;;
78752;SDS011;68072;51.688;7.842;2023-10-31T02:00:00;3.03;;;2.72;;
78752;SDS011;68072;51.688;7.842;2023-10-31T02:02:26;2.30;;;2.05;;
78752;SDS011;68072;51.688;7.842;2023-10-31T02:04:52;1.92;;;1.77;;
78752;SDS011;68072;51.688;7.842;2023-10-31T02:07:17;2.33;;;2.13;;
78752;SDS011;68072;51.688;7.842;2023-10-31T02:09:43;2.30;;;2.10;;
78752;SDS011;68072;51.688;7.842;2023-10-31T02:12:09;3.77;;;2.57;;
78752;SDS011;68072;51.688;7.842;2023-10-31T02:17:00;2.78;;;2.50;;
78752;SDS011;68072;51.688;7.842;2023-10-31T02:19:25;2.63;;;2.43;;
78752;SDS011;68072;51.688;7.842;2023-10-31T02:21:50;2.83;;;2.20;;
78752;SDS011;68072;51.688;7.842;2023-10-31T02:24:15;2.30;;;2.10;;
78752;SDS011;68072;51.688;7.842;2023-10-31T02:26:41;2.40;;;2.20;;
78752;SDS011;68072;51.688;7.842;2023-10-31T02:29:06;2.90;;;2.60;;
78752;SDS011;68072;51.688;7.842;2023-10-31T02:31:32;3.58;;;2.92;;
78752;SDS011;68072;51.688;7.842;2023-10-31T02:33:57;3.40;;;2.55;;
78752;SDS011;68072;51.688;7.842;2023-10-31T02:36:22;2.63;;;2.43;;
78752;SDS011;68072;51.688;7.842;2023-10-31T02:38:48;2.42;;;2.22;;
78752;SDS011;68072;51.688;7.842;2023-10-31T02:41:13;2.63;;;2.40;;
78752;SDS011;68072;51.688;7.842;2023-10-31T02:43:41;4.30;;;2.88;;
78752;SDS011;68072;51.688;7.842;2023-10-31T02:46:06;2.95;;;2.75;;
78752;SDS011;68072;51.688;7.842;2023-10-31T02:48:32;3.40;;;2.70;;
78752;SDS011;68072;51.688;7.842;2023-10-31T02:51:05;3.33;;;1.85;;
78752;SDS011;68072;51.688;7.842;2023-10-31T02:53:31;3.55;;;3.03;;
78752;SDS011;68072;51.688;7.842;2023-10-31T02:55:56;4.53;;;3.13;;
78752;SDS011;68072;51.688;7.842;2023-10-31T02:58:22;4.70;;;3.87;;
78752;SDS011;68072;51.688;7.842;2023-10-31T03:00:47;3.38;;;3.08;;
78752;SDS011;68072;51.688;7.842;2023-10-31T03:03:13;5.78;;;3.88;;
78752;SDS011;68072;51.688;7.842;2023-10-31T03:05:38;6.10;;;4.10;;
78752;SDS011;68072;51.688;7.842;2023-10-31T03:08:03;3.97;;;3.57;;
78752;SDS011;68072;51.688;7.842;2023-10-31T03:10:29;4.73;;;4.07;;
78752;SDS011;68072;51.688;7.842;2023-10-31T03:12:54;4.30;;;3.67;;
78752;SDS011;68072;51.688;7.842;2023-10-31T03:15:19;5.40;;;4.30;;
78752;SDS011;68072;51.688;7.842;2023-10-31T03:17:44;5.73;;;3.70;;
78752;SDS011;68072;51.688;7.842;2023-10-31T03:20:10;3.27;;;2.83;;
78752;SDS011;68072;51.688;7.842;2023-10-31T03:22:35;5.75;;;3.80;;
78752;SDS011;68072;51.688;7.842;2023-10-31T03:25:00;4.80;;;3.67;;
78752;SDS011;68072;51.688;7.842;2023-10-31T03:27:26;3.40;;;2.83;;
78752;SDS011;68072;51.688;7.842;2023-10-31T03:29:51;2.92;;;2.72;;
78752;SDS011;68072;51.688;7.842;2023-10-31T03:32:17;4.80;;;3.95;;
78752;SDS011;68072;51.688;7.842;2023-10-31T03:34:42;5.50;;;4.47;;
78752;SDS011;68072;51.688;7.842;2023-10-31T03:37:07;5.03;;;2.83;;
78752;SDS011;68072;51.688;7.842;2023-10-31T03:39:32;6.67;;;4.10;;
78752;SDS011;68072;51.688;7.842;2023-10-31T03:41:58;4.38;;;3.85;;
78752;SDS011;68072;51.688;7.842;2023-10-31T03:44:23;5.73;;;3.23;;
78752;SDS011;68072;51.688;7.842;2023-10-31T03:46:48;6.50;;;4.13;;
78752;SDS011;68072;51.688;7.842;2023-10-31T03:49:13;4.33;;;3.43;;
78752;SDS011;68072;51.688;7.842;2023-10-31T03:51:39;5.88;;;4.47;;
78752;SDS011;68072;51.688;7.842;2023-10-31T03:54:04;6.23;;;3.33;;
78752;SDS011;68072;51.688;7.842;2023-10-31T03:56:29;6.82;;;4.82;;
78752;SDS011;68072;51.688;7.842;2023-10-31T03:58:55;6.17;;;4.33;;
78752;SDS011;68072;51.688;7.842;2023-10-31T04:01:20;6.53;;;4.57;;
78752;SDS011;68072;51.688;7.842;2023-10-31T04:03:46;7.03;;;4.87;;
78752;SDS011;68072;51.688;7.842;2023-10-31T04:06:11;4.25;;;3.35;;
78752;SDS011;68072;51.688;7.842;2023-10-31T04:08:36;6.67;;;5.00;;
78752;SDS011;68072;51.688;7.842;2023-10-31T04:11:01;8.53;;;5.30;;
78752;SDS011;68072;51.688;7.842;2023-10-31T04:13:27;7.45;;;4.40;;
78752;SDS011;68072;51.688;7.842;2023-10-31T04:15:52;8.57;;;5.57;;
78752;SDS011;68072;51.688;7.842;2023-10-31T04:18:17;6.67;;;4.80;;
78752;SDS011;68072;51.688;7.842;2023-10-31T04:20:42;6.43;;;4.30;;
78752;SDS011;68072;51.688;7.842;2023-10-31T04:23:08;8.43;;;4.83;;
78752;SDS011;68072;51.688;7.842;2023-10-31T04:25:33;6.03;;;4.50;;
78752;SDS011;68072;51.688;7.842;2023-10-31T04:27:58;7.35;;;5.05;;
78752;SDS011;68072;51.688;7.842;2023-10-31T04:30:24;6.35;;;4.45;;
78752;SDS011;68072;51.688;7.842;2023-10-31T04:32:49;7.27;;;4.97;;
78752;SDS011;68072;51.688;7.842;2023-10-31T04:35:15;8.00;;;5.37;;
78752;SDS011;68072;51.688;7.842;2023-10-31T04:37:40;8.10;;;4.82;;
78752;SDS011;68072;51.688;7.842;2023-10-31T04:40:06;10.27;;;5.37;;
78752;SDS011;68072;51.688;7.842;2023-10-31T04:42:34;8.40;;;5.18;;
78752;SDS011;68072;51.688;7.842;2023-10-31T04:44:59;9.15;;;5.18;;
78752;SDS011;68072;51.688;7.842;2023-10-31T04:47:25;8.17;;;5.70;;
78752;SDS011;68072;51.688;7.842;2023-10-31T04:49:50;9.18;;;5.78;;
78752;SDS011;68072;51.688;7.842;2023-10-31T04:52:16;7.50;;;4.43;;
78752;SDS011;68072;51.688;7.842;2023-10-31T04:57:07;6.97;;;4.77;;
78752;SDS011;68072;51.688;7.842;2023-10-31T04:59:32;7.87;;;5.00;;
78752;SDS011;68072;51.688;7.842;2023-10-31T05:01:57;7.83;;;5.53;;
78752;SDS011;68072;51.688;7.842;2023-10-31T05:04:23;9.27;;;5.37;;
78752;SDS011;68072;51.688;7.842;2023-10-31T05:06:48;9.17;;;5.23;;
78752;SDS011;68072;51.688;7.842;2023-10-31T05:09:14;6.70;;;4.80;;
78752;SDS011;68072;51.688;7.842;2023-10-31T05:11:39;8.73;;;4.65;;
78752;SDS011;68072;51.688;7.842;2023-10-31T05:14:04;10.57;;;5.50;;
78752;SDS011;68072;51.688;7.842;2023-10-31T05:16:30;11.52;;;5.80;;
78752;SDS011;68072;51.688;7.842;2023-10-31T05:18:55;10.67;;;5.33;;
78752;SDS011;68072;51.688;7.842;2023-10-31T05:21:20;7.03;;;4.50;;
78752;SDS011;68072;51.688;7.842;2023-10-31T05:23:46;6.00;;;4.57;;
78752;SDS011;68072;51.688;7.842;2023-10-31T05:26:11;7.30;;;4.88;;
78752;SDS011;68072;51.688;7.842;2023-10-31T05:28:36;9.47;;;4.97;;
78752;SDS011;68072;51.688;7.842;2023-10-31T05:31:01;6.20;;;4.50;;
78752;SDS011;68072;51.688;7.842;2023-10-31T05:33:27;5.83;;;4.50;;
78752;SDS011;68072;51.688;7.842;2023-10-31T05:35:52;8.67;;;4.07;;
78752;SDS011;68072;51.688;7.842;2023-10-31T05:38:17;6.33;;;4.10;;
78752;SDS011;68072;51.688;7.842;2023-10-31T05:40:42;4.33;;;3.10;;
78752;SDS011;68072;51.688;7.842;2023-10-31T05:43:08;6.27;;;4.40;;
78752;SDS011;68072;51.688;7.842;2023-10-31T05:45:33;6.37;;;3.90;;
78752;SDS011;68072;51.688;7.842;2023-10-31T05:47:59;8.25;;;5.15;;
78752;SDS011;68072;51.688;7.842;2023-10-31T05:50:24;10.33;;;4.47;;
78752;SDS011;68072;51.688;7.842;2023-10-31T05:52:49;7.57;;;4.53;;
78752;SDS011;68072;51.688;7.842;2023-10-31T05:55:14;7.67;;;4.03;;
78752;SDS011;68072;51.688;7.842;2023-10-31T05:57:40;6.23;;;3.50;;
78752;SDS011;68072;51.688;7.842;2023-10-31T06:00:06;10.05;;;4.18;;
78752;SDS011;68072;51.688;7.842;2023-10-31T06:02:33;6.63;;;4.47;;
78752;SDS011;68072;51.688;7.842;2023-10-31T06:04:58;6.93;;;4.20;;
78752;SDS011;68072;51.688;7.842;2023-10-31T06:07:23;7.13;;;4.03;;
78752;SDS011;68072;51.688;7.842;2023-10-31T06:09:49;6.87;;;4.37;;
78752;SDS011;68072;51.688;7.842;2023-10-31T06:12:14;6.10;;;4.27;;
78752;SDS011;68072;51.688;7.842;2023-10-31T06:14:39;8.43;;;4.90;;
78752;SDS011;68072;51.688;7.842;2023-10-31T06:17:04;10.10;;;6.07;;
78752;SDS011;68072;51.688;7.842;2023-10-31T06:19:33;11.17;;;7.07;;
78752;SDS011;68072;51.688;7.842;2023-10-31T06:21:58;12.13;;;6.97;;
78752;SDS011;68072;51.688;7.842;2023-10-31T06:24:23;12.10;;;7.10;;
78752;SDS011;68072;51.688;7.842;2023-10-31T06:26:48;14.87;;;8.50;;
78752;SDS011;68072;51.688;7.842;2023-10-31T06:29:14;14.13;;;8.17;;
78752;SDS011;68072;51.688;7.842;2023-10-31T06:31:39;17.23;;;9.53;;
78752;SDS011;68072;51.688;7.842;2023-10-31T06:34:04;11.13;;;6.93;;
78752;SDS011;68072;51.688;7.842;2023-10-31T06:36:29;15.27;;;8.97;;
78752;SDS011;68072;51.688;7.842;2023-10-31T06:38:55;12.40;;;7.60;;
78752;SDS011;68072;51.688;7.842;2023-10-31T06:41:21;17.17;;;9.02;;
78752;SDS011;68072;51.688;7.842;2023-10-31T06:43:46;18.33;;;9.10;;
78752;SDS011;68072;51.688;7.842;2023-10-31T06:46:12;13.00;;;7.30;;
78752;SDS011;68072;51.688;7.842;2023-10-31T06:48:39;13.77;;;7.93;;
78752;SDS011;68072;51.688;7.842;2023-10-31T06:51:04;15.70;;;8.87;;
78752;SDS011;68072;51.688;7.842;2023-10-31T06:53:30;16.02;;;8.35;;
78752;SDS011;68072;51.688;7.842;2023-10-31T06:55:55;15.63;;;8.10;;
78752;SDS011;68072;51.688;7.842;2023-10-31T06:58:20;18.03;;;7.63;;
78752;SDS011;68072;51.688;7.842;2023-10-31T07:00:46;11.80;;;6.93;;
78752;SDS011;68072;51.688;7.842;2023-10-31T07:03:11;13.03;;;7.17;;
78752;SDS011;68072;51.688;7.842;2023-10-31T07:05:40;15.15;;;6.95;;
78752;SDS011;68072;51.688;7.842;2023-10-31T07:08:05;13.43;;;7.50;;
78752;SDS011;68072;51.688;7.842;2023-10-31T07:10:31;9.13;;;6.00;;
78752;SDS011;68072;51.688;7.842;2023-10-31T07:12:56;8.77;;;5.50;;
78752;SDS011;68072;51.688;7.842;2023-10-31T07:15:22;10.23;;;6.25;;
78752;SDS011;68072;51.688;7.842;2023-10-31T07:17:47;9.57;;;5.10;;
78752;SDS011;68072;51.688;7.842;2023-10-31T07:20:12;13.02;;;5.65;;
78752;SDS011;68072;51.688;7.842;2023-10-31T07:22:38;6.17;;;4.13;;
78752;SDS011;68072;51.688;7.842;2023-10-31T07:25:05;5.47;;;3.35;;
78752;SDS011;68072;51.688;7.842;2023-10-31T07:27:30;6.60;;;4.60;;
78752;SDS011;68072;51.688;7.842;2023-10-31T07:29:55;4.77;;;3.20;;
78752;SDS011;68072;51.688;7.842;2023-10-31T07:32:20;8.60;;;5.00;;
78752;SDS011;68072;51.688;7.842;2023-10-31T07:34:46;6.43;;;4.07;;
78752;SDS011;68072;51.688;7.842;2023-10-31T07:37:11;8.30;;;4.23;;
78752;SDS011;68072;51.688;7.842;2023-10-31T07:39:36;8.40;;;4.57;;
78752;SDS011;68072;51.688;7.842;2023-10-31T07:42:02;6.83;;;4.07;;
78752;SDS011;68072;51.688;7.842;2023-10-31T07:44:27;9.03;;;4.07;;
78752;SDS011;68072;51.688;7.842;2023-10-31T07:46:52;10.00;;;4.80;;
78752;SDS011;68072;51.688;7.842;2023-10-31T07:49:17;9.70;;;5.50;;
78752;SDS011;68072;51.688;7.842;2023-10-31T07:51:43;10.83;;;6.40;;
78752;SDS011;68072;51.688;7.842;2023-10-31T07:54:08;8.40;;;5.77;;
78752;SDS011;68072;51.688;7.842;2023-10-31T08:12:10;12.68;;;8.00;;
78752;SDS011;68072;51.688;7.842;2023-10-31T08:14:35;14.90;;;8.07;;
78752;SDS011;68072;51.688;7.842;2023-10-31T08:17:02;15.93;;;7.50;;
78752;SDS011;68072;51.688;7.842;2023-10-31T08:19:27;15.48;;;8.10;;
78752;SDS011;68072;51.688;7.842;2023-10-31T08:21:52;16.10;;;8.13;;
78752;SDS011;68072;51.688;7.842;2023-10-31T08:24:18;14.43;;;8.00;;
78752;SDS011;68072;51.688;7.842;2023-10-31T08:26:44;14.02;;;8.52;;
78752;SDS011;68072;51.688;7.842;2023-10-31T08:29:09;13.50;;;7.15;;
78752;SDS011;68072;51.688;7.842;2023-10-31T08:31:34;13.13;;;7.80;;
78752;SDS011;68072;51.688;7.842;2023-10-31T08:34:00;14.20;;;8.63;;
78752;SDS011;68072;51.688;7.842;2023-10-31T08:36:25;14.10;;;7.87;;
78752;SDS011;68072;51.688;7.842;2023-10-31T08:38:50;9.10;;;6.03;;
78752;SDS011;68072;51.688;7.842;2023-10-31T08:41:15;10.70;;;5.40;;
78752;SDS011;68072;51.688;7.842;2023-10-31T08:43:45;12.27;;;7.05;;
78752;SDS011;68072;51.688;7.842;2023-10-31T08:46:10;8.73;;;5.70;;
78752;SDS011;68072;51.688;7.842;2023-10-31T08:48:36;11.00;;;6.18;;
78752;SDS011;68072;51.688;7.842;2023-10-31T08:51:01;9.73;;;5.47;;
78752;SDS011;68072;51.688;7.842;2023-10-31T08:53:26;9.10;;;5.83;;
78752;SDS011;68072;51.688;7.842;2023-10-31T08:55:53;6.72;;;4.88;;
78752;SDS011;68072;51.688;7.842;2023-10-31T08:58:18;8.30;;;5.20;;
78752;SDS011;68072;51.688;7.842;2023-10-31T09:00:43;12.52;;;6.55;;
78752;SDS011;68072;51.688;7.842;2023-10-31T09:03:09;9.57;;;5.80;;
78752;SDS011;68072;51.688;7.842;2023-10-31T09:05:37;9.15;;;6.25;;
78752;SDS011;68072;51.688;7.842;2023-10-31T09:08:02;9.50;;;5.83;;
78752;SDS011;68072;51.688;7.842;2023-10-31T09:10:27;8.95;;;6.43;;
78752;SDS011;68072;51.688;7.842;2023-10-31T09:12:53;8.02;;;4.97;;
78752;SDS011;68072;51.688;7.842;2023-10-31T09:15:19;11.43;;;6.35;;
78752;SDS011;68072;51.688;7.842;2023-10-31T09:17:46;9.00;;;6.55;;
78752;SDS011;68072;51.688;7.842;2023-10-31T09:20:11;10.17;;;7.00;;
78752;SDS011;68072;51.688;7.842;2023-10-31T09:22:37;8.70;;;6.55;;
78752;SDS011;68072;51.688;7.842;2023-10-31T09:25:02;8.45;;;6.47;;
78752;SDS011;68072;51.688;7.842;2023-10-31T09:27:28;8.20;;;6.22;;
78752;SDS011;68072;51.688;7.842;2023-10-31T09:29:53;8.27;;;4.70;;
78752;SDS011;68072;51.688;7.842;2023-10-31T09:32:18;8.77;;;6.47;;
78752;SDS011;68072;51.688;7.842;2023-10-31T09:34:44;9.47;;;6.63;;
78752;SDS011;68072;51.688;7.842;2023-10-31T09:37:09;9.67;;;6.40;;
78752;SDS011;68072;51.688;7.842;2023-10-31T09:39:35;8.75;;;6.03;;
78752;SDS011;68072;51.688;7.842;2023-10-31T09:42:00;8.13;;;5.05;;
78752;SDS011;68072;51.688;7.842;2023-10-31T09:44:26;6.53;;;5.70;;
78752;SDS011;68072;51.688;7.842;2023-10-31T09:46:51;7.90;;;6.13;;
78752;SDS011;68072;51.688;7.842;2023-10-31T09:49:17;9.43;;;6.75;;
78752;SDS011;68072;51.688;7.842;2023-10-31T09:51:42;9.90;;;6.70;;
78752;SDS011;68072;51.688;7.842;2023-10-31T09:54:08;8.75;;;6.45;;
78752;SDS011;68072;51.688;7.842;2023-10-31T09:56:34;9.57;;;6.30;;
78752;SDS011;68072;51.688;7.842;2023-10-31T09:59:00;7.78;;;5.78;;
78752;SDS011;68072;51.688;7.842;2023-10-31T10:01:25;9.63;;;6.10;;
78752;SDS011;68072;51.688;7.842;2023-10-31T10:03:51;9.05;;;5.90;;
78752;SDS011;68072;51.688;7.842;2023-10-31T10:06:17;10.65;;;6.28;;
78752;SDS011;68072;51.688;7.842;2023-10-31T10:08:46;7.18;;;5.57;;
78752;SDS011;68072;51.688;7.842;2023-10-31T10:11:11;5.03;;;4.20;;
78752;SDS011;68072;51.688;7.842;2023-10-31T10:13:36;5.70;;;4.53;;
78752;SDS011;68072;51.688;7.842;2023-10-31T10:16:02;6.15;;;4.78;;
78752;SDS011;68072;51.688;7.842;2023-10-31T10:18:28;7.65;;;5.03;;
78752;SDS011;68072;51.688;7.842;2023-10-31T10:20:54;10.75;;;5.25;;
78752;SDS011;68072;51.688;7.842;2023-10-31T10:23:19;8.38;;;5.15;;
78752;SDS011;68072;51.688;7.842;2023-10-31T10:25:48;5.10;;;4.60;;
78752;SDS011;68072;51.688;7.842;2023-10-31T10:28:13;5.80;;;5.20;;
78752;SDS011;68072;51.688;7.842;2023-10-31T10:30:39;5.50;;;3.95;;
78752;SDS011;68072;51.688;7.842;2023-10-31T10:33:05;7.88;;;5.32;;
78752;SDS011;68072;51.688;7.842;2023-10-31T10:35:33;7.15;;;5.60;;
78752;SDS011;68072;51.688;7.842;2023-10-31T10:37:59;5.35;;;4.32;;
78752;SDS011;68072;51.688;7.842;2023-10-31T10:40:24;6.90;;;4.97;;
78752;SDS011;68072;51.688;7.842;2023-10-31T10:42:51;6.88;;;5.70;;
78752;SDS011;68072;51.688;7.842;2023-10-31T10:45:22;8.65;;;5.63;;
78752;SDS011;68072;51.688;7.842;2023-10-31T10:50:18;5.35;;;3.92;;
78752;SDS011;68072;51.688;7.842;2023-10-31T10:52:49;10.38;;;5.50;;
78752;SDS011;68072;51.688;7.842;2023-10-31T10:55:19;8.15;;;5.82;;
78752;SDS011;68072;51.688;7.842;2023-10-31T10:58:06;7.18;;;6.13;;
78752;SDS011;68072;51.688;7.842;2023-10-31T11:00:33;9.75;;;6.32;;
78752;SDS011;68072;51.688;7.842;2023-10-31T11:02:59;6.95;;;5.35;;
78752;SDS011;68072;51.688;7.842;2023-10-31T11:05:26;8.50;;;5.35;;
78752;SDS011;68072;51.688;7.842;2023-10-31T11:07:52;10.65;;;5.80;;
78752;SDS011;68072;51.688;7.842;2023-10-31T11:10:18;8.07;;;5.50;;
78752;SDS011;68072;51.688;7.842;2023-10-31T11:12:44;6.45;;;5.40;;
78752;SDS011;68072;51.688;7.842;2023-10-31T11:15:11;8.57;;;5.10;;
78752;SDS011;68072;51.688;7.842;2023-10-31T11:17:37;8.32;;;5.05;;
78752;SDS011;68072;51.688;7.842;2023-10-31T11:22:39;8.10;;;5.35;;
78752;SDS011;68072;51.688;7.842;2023-10-31T11:25:06;5.53;;;4.60;;
78752;SDS011;68072;51.688;7.842;2023-10-31T11:27:33;6.50;;;4.93;;
78752;SDS011;68072;51.688;7.842;2023-10-31T11:30:06;7.95;;;5.55;;
78752;SDS011;68072;51.688;7.842;2023-10-31T11:32:32;7.50;;;5.05;;
78752;SDS011;68072;51.688;7.842;2023-10-31T11:34:59;10.13;;;5.20;;
78752;SDS011;68072;51.688;7.842;2023-10-31T11:37:32;9.88;;;5.03;;
78752;SDS011;68072;51.688;7.842;2023-10-31T11:40:14;7.18;;;4.57;;
78752;SDS011;68072;51.688;7.842;2023-10-31T11:42:44;5.88;;;4.95;;
78752;SDS011;68072;51.688;7.842;2023-10-31T11:45:11;6.53;;;5.10;;
78752;SDS011;68072;51.688;7.842;2023-10-31T11:47:47;7.03;;;4.55;;
78752;SDS011;68072;51.688;7.842;2023-10-31T11:50:15;8.38;;;5.20;;
78752;SDS011;68072;51.688;7.842;2023-10-31T11:53:07;5.70;;;4.47;;
78752;SDS011;68072;51.688;7.842;2023-10-31T11:55:39;5.18;;;4.43;;
78752;SDS011;68072;51.688;7.842;2023-10-31T11:58:22;7.45;;;4.43;;
78752;SDS011;68072;51.688;7.842;2023-10-31T12:01:00;7.75;;;4.90;;
78752;SDS011;68072;51.688;7.842;2023-10-31T12:03:27;6.22;;;4.50;;
78752;SDS011;68072;51.688;7.842;2023-10-31T12:05:56;7.78;;;4.65;;
78752;SDS011;68072;51.688;7.842;2023-10-31T12:08:26;10.07;;;4.07;;
78752;SDS011;68072;51.688;7.842;2023-10-31T12:10:52;6.65;;;4.05;;
78752;SDS011;68072;51.688;7.842;2023-10-31T12:13:17;6.25;;;4.65;;
78752;SDS011;68072;51.688;7.842;2023-10-31T12:15:52;5.03;;;3.88;;
78752;SDS011;68072;51.688;7.842;2023-10-31T12:18:18;10.35;;;4.50;;
78752;SDS011;68072;51.688;7.842;2023-10-31T12:20:47;7.83;;;4.33;;
78752;SDS011;68072;51.688;7.842;2023-10-31T12:23:14;7.80;;;4.80;;
78752;SDS011;68072;51.688;7.842;2023-10-31T12:25:49;6.80;;;4.68;;
78752;SDS011;68072;51.688;7.842;2023-10-31T12:28:31;12.50;;;5.45;;
78752;SDS011;68072;51.688;7.842;2023-10-31T12:31:01;6.68;;;5.30;;
78752;SDS011;68072;51.688;7.842;2023-10-31T12:33:37;5.43;;;4.18;;
78752;SDS011;68072;51.688;7.842;2023-10-31T12:36:03;7.60;;;4.47;;
78752;SDS011;68072;51.688;7.842;2023-10-31T12:38:29;9.02;;;4.90;;
78752;SDS011;68072;51.688;7.842;2023-10-31T12:40:55;5.20;;;4.43;;
78752;SDS011;68072;51.688;7.842;2023-10-31T12:43:22;8.82;;;5.13;;
78752;SDS011;68072;51.688;7.842;2023-10-31T12:45:48;10.10;;;4.85;;
78752;SDS011;68072;51.688;7.842;2023-10-31T12:48:13;7.10;;;4.20;;
78752;SDS011;68072;51.688;7.842;2023-10-31T12:50:40;7.53;;;4.70;;
78752;SDS011;68072;51.688;7.842;2023-10-31T12:53:22;6.45;;;4.43;;
78752;SDS011;68072;51.688;7.842;2023-10-31T12:55:49;7.65;;;4.30;;
78752;SDS011;68072;51.688;7.842;2023-10-31T12:58:21;6.40;;;3.70;;
78752;SDS011;68072;51.688;7.842;2023-10-31T13:00:53;7.28;;;3.65;;
78752;SDS011;68072;51.688;7.842;2023-10-31T13:03:21;8.05;;;3.85;;
78752;SDS011;68072;51.688;7.842;2023-10-31T13:05:46;5.45;;;3.63;;
78752;SDS011;68072;51.688;7.842;2023-10-31T13:08:15;9.20;;;3.83;;
78752;SDS011;68072;51.688;7.842;2023-10-31T13:10:41;8.13;;;3.08;;
78752;SDS011;68072;51.688;7.842;2023-10-31T13:13:22;7.15;;;2.80;;
78752;SDS011;68072;51.688;7.842;2023-10-31T13:15:48;5.13;;;3.17;;
78752;SDS011;68072;51.688;7.842;2023-10-31T13:18:19;6.82;;;3.17;;
78752;SDS011;68072;51.688;7.842;2023-10-31T13:20:46;3.63;;;2.75;;
78752;SDS011;68072;51.688;7.842;2023-10-31T13:23:14;4.47;;;2.80;;
78752;SDS011;68072;51.688;7.842;2023-10-31T13:25:40;5.63;;;2.67;;
78752;SDS011;68072;51.688;7.842;2023-10-31T13:28:07;7.00;;;2.85;;
78752;SDS011;68072;51.688;7.842;2023-10-31T13:30:38;3.67;;;2.72;;
78752;SDS011;68072;51.688;7.842;2023-10-31T13:33:07;5.68;;;2.80;;
78752;SDS011;68072;51.688;7.842;2023-10-31T13:35:33;4.15;;;2.85;;
78752;SDS011;68072;51.688;7.842;2023-10-31T13:37:59;7.80;;;3.00;;
78752;SDS011;68072;51.688;7.842;2023-10-31T13:40:36;3.28;;;2.45;;
78752;SDS011;68072;51.688;7.842;2023-10-31T13:43:10;3.25;;;2.50;;
78752;SDS011;68072;51.688;7.842;2023-10-31T13:45:36;4.55;;;3.08;;
78752;SDS011;68072;51.688;7.842;2023-10-31T13:48:02;4.80;;;2.78;;
78752;SDS011;68072;51.688;7.842;2023-10-31T13:50:28;3.95;;;2.50;;
78752;SDS011;68072;51.688;7.842;2023-10-31T13:52:56;7.05;;;2.67;;
78752;SDS011;68072;51.688;7.842;2023-10-31T13:55:21;9.65;;;3.20;;
78752;SDS011;68072;51.688;7.842;2023-10-31T13:57:51;5.50;;;2.92;;
78752;SDS011;68072;51.688;7.842;2023-10-31T14:00:43;2.58;;;2.38;;
78752;SDS011;68072;51.688;7.842;2023-10-31T14:03:10;7.18;;;2.60;;
78752;SDS011;68072;51.688;7.842;2023-10-31T14:05:38;4.85;;;2.17;;
78752;SDS011;68072;51.688;7.842;2023-10-31T14:08:10;4.80;;;2.40;;
78752;SDS011;68072;51.688;7.842;2023-10-31T14:10:36;4.45;;;2.15;;
78752;SDS011;68072;51.688;7.842;2023-10-31T14:13:07;4.35;;;2.08;;
78752;SDS011;68072;51.688;7.842;2023-10-31T14:15:32;4.37;;;2.20;;
78752;SDS011;68072;51.688;7.842;2023-10-31T14:17:58;5.05;;;2.25;;
78752;SDS011;68072;51.688;7.842;2023-10-31T14:22:51;4.47;;;1.88;;
78752;SDS011;68072;51.688;7.842;2023-10-31T14:25:25;3.83;;;2.10;;
78752;SDS011;68072;51.688;7.842;2023-10-31T14:27:56;4.18;;;1.95;;
78752;SDS011;68072;51.688;7.842;2023-10-31T14:30:22;3.80;;;2.10;;
78752;SDS011;68072;51.688;7.842;2023-10-31T14:32:49;4.30;;;2.30;;
78752;SDS011;68072;51.688;7.842;2023-10-31T14:35:29;4.43;;;2.42;;
78752;SDS011;68072;51.688;7.842;2023-10-31T14:37:58;3.00;;;2.10;;
78752;SDS011;68072;51.688;7.842;2023-10-31T14:40:31;5.25;;;2.03;;
78752;SDS011;68072;51.688;7.842;2023-10-31T14:42:59;3.58;;;2.30;;
78752;SDS011;68072;51.688;7.842;2023-10-31T14:45:26;4.53;;;2.05;;
78752;SDS011;68072;51.688;7.842;2023-10-31T14:47:57;6.45;;;2.78;;
78752;SDS011;68072;51.688;7.842;2023-10-31T14:50:33;4.43;;;2.20;;
78752;SDS011;68072;51.688;7.842;2023-10-31T14:53:00;4.15;;;2.58;;
78752;SDS011;68072;51.688;7.842;2023-10-31T14:55:29;2.47;;;1.92;;
78752;SDS011;68072;51.688;7.842;2023-10-31T14:58:07;4.22;;;2.25;;
78752;SDS011;68072;51.688;7.842;2023-10-31T15:00:41;5.32;;;2.25;;
78752;SDS011;68072;51.688;7.842;2023-10-31T15:03:11;3.70;;;2.03;;
78752;SDS011;68072;51.688;7.842;2023-10-31T15:05:47;1.92;;;1.80;;
78752;SDS011;68072;51.688;7.842;2023-10-31T15:08:24;3.90;;;2.00;;
78752;SDS011;68072;51.688;7.842;2023-10-31T15:10:53;2.95;;;1.67;;